sensor_id;sensor_type;location;lat;lon;timestamp;pressure;altitude;pressure_sealevel;temperature;humidity
13209;BME280;6669;42.678;23.332;2024-03-02T00:01:57;93985.81;;;7.53;100.00
13209;BME280;6669;42.678;23.332;2024-03-02T00:04:27;93997.94;;;7.52;100.00
13209;BME280;6669;42.678;23.332;2024-03-02T00:06:55;93994.53;;;7.52;100.00
13209;BME280;6669;42.678;23.332;2024-03-02T00:09:23;93990.50;;;7.58;100.00
13209;BME280;6669;42.678;23.332;2024-03-02T00:11:52;93991.00;;;7.53;100.00
13209;BME280;6669;42.678;23.332;2024-03-02T00:14:20;93984.56;;;7.49;100.00
13209;BME280;6669;42.678;23.332;2024-03-02T00:16:51;93993.91;;;7.50;100.00
13209;BME280;6669;42.678;23.332;2024-03-02T00:19:20;93985.03;;;7.52;100.00
13209;BME280;6669;42.678;23.332;2024-03-02T00:21:49;93985.50;;;7.48;100.00
13209;BME280;6669;42.678;23.332;2024-03-02T00:24:21;93984.50;;;7.57;100.00
13209;BME280;6669;42.678;23.332;2024-03-02T00:26:49;93995.00;;;7.56;100.00
13209;BME280;6669;42.678;23.332;2024-03-02T00:29:18;93987.09;;;7.57;100.00
13209;BME280;6669;42.678;23.332;2024-03-02T00:31:47;93991.00;;;7.53;100.00
13209;BME280;6669;42.678;23.332;2024-03-02T00:34:17;93985.63;;;7.63;100.00
13209;BME280;6669;42.678;23.332;2024-03-02T00:36:45;93981.75;;;7.59;100.00
13209;BME280;6669;42.678;23.332;2024-03-02T00:39:16;93979.63;;;7.62;100.00
13209;BME280;6669;42.678;23.332;2024-03-02T00:41:45;93971.03;;;7.70;100.00
13209;BME280;6669;42.678;23.332;2024-03-02T00:44:15;93971.28;;;7.83;100.00
13209;BME280;6669;42.678;23.332;2024-03-02T00:46:44;93973.91;;;7.75;100.00
13209;BME280;6669;42.678;23.332;2024-03-02T00:49:18;93978.09;;;7.76;100.00
13209;BME280;6669;42.678;23.332;2024-03-02T00:51:48;93969.38;;;7.77;100.00
13209;BME280;6669;42.678;23.332;2024-03-02T00:54:21;93974.50;;;7.85;100.00
13209;BME280;6669;42.678;23.332;2024-03-02T00:56:51;93967.03;;;7.91;100.00
13209;BME280;6669;42.678;23.332;2024-03-02T00:59:19;93966.50;;;7.95;100.00
13209;BME280;6669;42.678;23.332;2024-03-02T01:01:47;93965.53;;;7.96;100.00
13209;BME280;6669;42.678;23.332;2024-03-02T01:04:16;93974.34;;;8.10;100.00
13209;BME280;6669;42.678;23.332;2024-03-02T01:06:44;93971.56;;;8.12;100.00
13209;BME280;6669;42.678;23.332;2024-03-02T01:09:13;93977.34;;;8.22;100.00
13209;BME280;6669;42.678;23.332;2024-03-02T01:11:43;93970.69;;;8.19;100.00
13209;BME280;6669;42.678;23.332;2024-03-02T01:14:11;93975.78;;;8.13;100.00
13209;BME280;6669;42.678;23.332;2024-03-02T01:16:39;93968.97;;;8.12;100.00
13209;BME280;6669;42.678;23.332;2024-03-02T01:19:08;93964.66;;;8.04;100.00
13209;BME280;6669;42.678;23.332;2024-03-02T01:21:36;93964.34;;;8.07;100.00
13209;BME280;6669;42.678;23.332;2024-03-02T01:24:05;93962.38;;;8.09;100.00
13209;BME280;6669;42.678;23.332;2024-03-02T01:26:33;93958.75;;;8.18;100.00
13209;BME280;6669;42.678;23.332;2024-03-02T01:29:02;93958.06;;;8.25;100.00
13209;BME280;6669;42.678;23.332;2024-03-02T01:31:31;93951.38;;;8.30;100.00
13209;BME280;6669;42.678;23.332;2024-03-02T01:33:59;93952.28;;;8.38;100.00
13209;BME280;6669;42.678;23.332;2024-03-02T01:36:27;93948.38;;;8.42;100.00
13209;BME280;6669;42.678;23.332;2024-03-02T01:38:55;93943.66;;;8.45;100.00
13209;BME280;6669;42.678;23.332;2024-03-02T01:41:24;93936.22;;;8.42;100.00
13209;BME280;6669;42.678;23.332;2024-03-02T01:43:52;93944.63;;;8.44;100.00
13209;BME280;6669;42.678;23.332;2024-03-02T01:46:22;93942.03;;;8.44;100.00
13209;BME280;6669;42.678;23.332;2024-03-02T01:48:51;93938.53;;;8.37;100.00
13209;BME280;6669;42.678;23.332;2024-03-02T01:51:19;93937.78;;;8.28;100.00
13209;BME280;6669;42.678;23.332;2024-03-02T01:53:48;93941.28;;;8.35;100.00
13209;BME280;6669;42.678;23.332;2024-03-02T01:56:16;93931.59;;;8.38;100.00
13209;BME280;6669;42.678;23.332;2024-03-02T01:58:44;93933.06;;;8.32;100.00
13209;BME280;6669;42.678;23.332;2024-03-02T02:01:12;93931.13;;;8.34;100.00
13209;BME280;6669;42.678;23.332;2024-03-02T02:03:43;93937.28;;;8.33;100.00
13209;BME280;6669;42.678;23.332;2024-03-02T02:06:11;93939.22;;;8.31;100.00
13209;BME280;6669;42.678;23.332;2024-03-02T02:08:40;93934.41;;;8.28;100.00
13209;BME280;6669;42.678;23.332;2024-03-02T02:11:08;93934.59;;;8.26;100.00
13209;BME280;6669;42.678;23.332;2024-03-02T02:13:36;93929.75;;;8.23;100.00
13209;BME280;6669;42.678;23.332;2024-03-02T02:16:05;93929.59;;;8.25;100.00
13209;BME280;6669;42.678;23.332;2024-03-02T02:18:34;93928.31;;;8.21;100.00
13209;BME280;6669;42.678;23.332;2024-03-02T02:21:04;93928.16;;;8.22;100.00
13209;BME280;6669;42.678;23.332;2024-03-02T02:23:34;93929.72;;;8.08;100.00
13209;BME280;6669;42.678;23.332;2024-03-02T02:26:02;93927.22;;;8.15;100.00
13209;BME280;6669;42.678;23.332;2024-03-02T02:28:30;93919.00;;;8.11;100.00
13209;BME280;6669;42.678;23.332;2024-03-02T02:30:58;93927.13;;;8.08;100.00
13209;BME280;6669;42.678;23.332;2024-03-02T02:33:28;93927.13;;;8.08;100.00
13209;BME280;6669;42.678;23.332;2024-03-02T02:35:56;93924.69;;;8.07;100.00
13209;BME280;6669;42.678;23.332;2024-03-02T02:38:24;93932.44;;;8.07;100.00
13209;BME280;6669;42.678;23.332;2024-03-02T02:40:54;93937.13;;;8.11;100.00
13209;BME280;6669;42.678;23.332;2024-03-02T02:43:21;93933.66;;;8.19;100.00
13209;BME280;6669;42.678;23.332;2024-03-02T02:45:49;93935.00;;;8.15;100.00
13209;BME280;6669;42.678;23.332;2024-03-02T02:48:17;93932.88;;;8.18;100.00
13209;BME280;6669;42.678;23.332;2024-03-02T02:50:46;93938.63;;;8.06;100.00
13209;BME280;6669;42.678;23.332;2024-03-02T02:53:14;93934.03;;;8.16;100.00
13209;BME280;6669;42.678;23.332;2024-03-02T02:55:42;93937.59;;;8.15;100.00
13209;BME280;6669;42.678;23.332;2024-03-02T02:58:12;93935.78;;;8.15;100.00
13209;BME280;6669;42.678;23.332;2024-03-02T03:00:42;93934.72;;;8.10;100.00
13209;BME280;6669;42.678;23.332;2024-03-02T03:03:11;93935.19;;;8.13;100.00
13209;BME280;6669;42.678;23.332;2024-03-02T03:05:39;93933.28;;;8.07;100.00
13209;BME280;6669;42.678;23.332;2024-03-02T03:08:07;93942.22;;;8.19;100.00
13209;BME280;6669;42.678;23.332;2024-03-02T03:10:35;93938.84;;;8.19;100.00
13209;BME280;6669;42.678;23.332;2024-03-02T03:13:04;93937.03;;;8.19;100.00
13209;BME280;6669;42.678;23.332;2024-03-02T03:15:36;93926.25;;;8.16;100.00
13209;BME280;6669;42.678;23.332;2024-03-02T03:18:05;93926.94;;;8.10;100.00
13209;BME280;6669;42.678;23.332;2024-03-02T03:20:34;93930.31;;;8.10;100.00
13209;BME280;6669;42.678;23.332;2024-03-02T03:23:02;93925.50;;;8.07;100.00
13209;BME280;6669;42.678;23.332;2024-03-02T03:25:31;93929.53;;;8.10;100.00
13209;BME280;6669;42.678;23.332;2024-03-02T03:28:00;93936.03;;;8.06;100.00
13209;BME280;6669;42.678;23.332;2024-03-02T03:30:30;93928.72;;;8.09;100.00
13209;BME280;6669;42.678;23.332;2024-03-02T03:32:59;93933.56;;;8.12;100.00
13209;BME280;6669;42.678;23.332;2024-03-02T03:35:28;93940.22;;;8.07;100.00
13209;BME280;6669;42.678;23.332;2024-03-02T03:37:56;93930.56;;;8.00;100.00
13209;BME280;6669;42.678;23.332;2024-03-02T03:40:24;93938.50;;;7.99;100.00
13209;BME280;6669;42.678;23.332;2024-03-02T03:42:52;93936.47;;;8.09;100.00
13209;BME280;6669;42.678;23.332;2024-03-02T03:45:22;93935.03;;;8.07;100.00
13209;BME280;6669;42.678;23.332;2024-03-02T03:47:53;93925.22;;;8.02;100.00
13209;BME280;6669;42.678;23.332;2024-03-02T03:50:22;93939.31;;;7.99;100.00
13209;BME280;6669;42.678;23.332;2024-03-02T03:52:51;93927.69;;;7.95;100.00
13209;BME280;6669;42.678;23.332;2024-03-02T03:55:19;93933.69;;;7.96;100.00
13209;BME280;6669;42.678;23.332;2024-03-02T03:57:47;93930.25;;;7.95;100.00
13209;BME280;6669;42.678;23.332;2024-03-02T04:00:16;93928.16;;;7.99;100.00
13209;BME280;6669;42.678;23.332;2024-03-02T04:02:44;93929.47;;;7.95;100.00
13209;BME280;6669;42.678;23.332;2024-03-02T04:05:12;93933.38;;;7.91;100.00
13209;BME280;6669;42.678;23.332;2024-03-02T04:07:42;93939.47;;;7.98;100.00
13209;BME280;6669;42.678;23.332;2024-03-02T04:10:10;93937.69;;;7.98;100.00
13209;BME280;6669;42.678;23.332;2024-03-02T04:12:39;93936.56;;;8.01;100.00
13209;BME280;6669;42.678;23.332;2024-03-02T04:15:08;93938.16;;;8.02;100.00
13209;BME280;6669;42.678;23.332;2024-03-02T04:17:36;93934.72;;;7.87;100.00
13209;BME280;6669;42.678;23.332;2024-03-02T04:20:05;93927.69;;;7.72;100.00
13209;BME280;6669;42.678;23.332;2024-03-02T04:22:34;93935.41;;;7.80;100.00
13209;BME280;6669;42.678;23.332;2024-03-02T04:25:04;93934.56;;;7.80;100.00
13209;BME280;6669;42.678;23.332;2024-03-02T04:27:34;93933.56;;;7.89;100.00
13209;BME280;6669;42.678;23.332;2024-03-02T04:30:04;93938.16;;;8.02;100.00
13209;BME280;6669;42.678;23.332;2024-03-02T04:32:34;93947.88;;;8.00;100.00
13209;BME280;6669;42.678;23.332;2024-03-02T04:35:04;93947.84;;;8.08;100.00
13209;BME280;6669;42.678;23.332;2024-03-02T04:37:34;93943.97;;;8.04;100.00
13209;BME280;6669;42.678;23.332;2024-03-02T04:40:04;93941.50;;;8.11;100.00
13209;BME280;6669;42.678;23.332;2024-03-02T04:42:35;93949.84;;;8.21;100.00
13209;BME280;6669;42.678;23.332;2024-03-02T04:45:03;93950.34;;;8.16;100.00
13209;BME280;6669;42.678;23.332;2024-03-02T04:47:32;93942.88;;;8.22;100.00
13209;BME280;6669;42.678;23.332;2024-03-02T04:50:00;93948.03;;;8.22;100.00
13209;BME280;6669;42.678;23.332;2024-03-02T04:52:28;93947.25;;;8.21;100.00
13209;BME280;6669;42.678;23.332;2024-03-02T04:54:57;93946.22;;;8.07;100.00
13209;BME280;6669;42.678;23.332;2024-03-02T04:57:43;93951.41;;;8.07;100.00
13209;BME280;6669;42.678;23.332;2024-03-02T05:00:13;93951.91;;;8.02;100.00
13209;BME280;6669;42.678;23.332;2024-03-02T05:02:42;93951.25;;;8.00;100.00
13209;BME280;6669;42.678;23.332;2024-03-02T05:05:10;93952.09;;;8.01;100.00
13209;BME280;6669;42.678;23.332;2024-03-02T05:07:38;93954.72;;;7.93;100.00
13209;BME280;6669;42.678;23.332;2024-03-02T05:10:08;93956.50;;;7.92;100.00
13209;BME280;6669;42.678;23.332;2024-03-02T05:12:38;93958.63;;;7.89;100.00
13209;BME280;6669;42.678;23.332;2024-03-02T05:15:25;93965.41;;;7.90;100.00
13209;BME280;6669;42.678;23.332;2024-03-02T05:17:53;93959.59;;;7.88;100.00
13209;BME280;6669;42.678;23.332;2024-03-02T05:20:24;93972.72;;;7.86;100.00
13209;BME280;6669;42.678;23.332;2024-03-02T05:22:52;93968.97;;;7.89;100.00
13209;BME280;6669;42.678;23.332;2024-03-02T05:25:20;93970.59;;;7.90;100.00
13209;BME280;6669;42.678;23.332;2024-03-02T05:27:48;93972.25;;;7.82;100.00
13209;BME280;6669;42.678;23.332;2024-03-02T05:30:16;93974.88;;;7.74;100.00
13209;BME280;6669;42.678;23.332;2024-03-02T05:32:46;93966.16;;;7.75;100.00
13209;BME280;6669;42.678;23.332;2024-03-02T05:35:15;93979.38;;;7.80;100.00
13209;BME280;6669;42.678;23.332;2024-03-02T05:37:43;93980.47;;;7.86;100.00
13209;BME280;6669;42.678;23.332;2024-03-02T05:40:11;93980.16;;;7.89;100.00
13209;BME280;6669;42.678;23.332;2024-03-02T05:42:40;93981.97;;;7.80;100.00
13209;BME280;6669;42.678;23.332;2024-03-02T05:45:09;93988.59;;;7.83;100.00
13209;BME280;6669;42.678;23.332;2024-03-02T05:47:37;93992.78;;;7.84;100.00
13209;BME280;6669;42.678;23.332;2024-03-02T05:50:08;93994.72;;;7.82;100.00
13209;BME280;6669;42.678;23.332;2024-03-02T05:52:37;93997.63;;;7.87;100.00
13209;BME280;6669;42.678;23.332;2024-03-02T05:55:06;93993.69;;;7.91;100.00
13209;BME280;6669;42.678;23.332;2024-03-02T05:57:34;93999.84;;;7.90;100.00
13209;BME280;6669;42.678;23.332;2024-03-02T06:00:22;93996.81;;;7.87;100.00
13209;BME280;6669;42.678;23.332;2024-03-02T06:02:51;93996.81;;;7.87;100.00
13209;BME280;6669;42.678;23.332;2024-03-02T06:05:21;93991.66;;;7.87;100.00
13209;BME280;6669;42.678;23.332;2024-03-02T06:07:49;93990.94;;;7.93;100.00
13209;BME280;6669;42.678;23.332;2024-03-02T06:10:17;93986.91;;;7.90;100.00
13209;BME280;6669;42.678;23.332;2024-03-02T06:12:45;93993.38;;;7.94;100.00
13209;BME280;6669;42.678;23.332;2024-03-02T06:15:14;93994.53;;;7.92;100.00
13209;BME280;6669;42.678;23.332;2024-03-02T06:17:42;94000.66;;;7.91;100.00
13209;BME280;6669;42.678;23.332;2024-03-02T06:20:11;93990.94;;;7.93;100.00
13209;BME280;6669;42.678;23.332;2024-03-02T06:22:40;93999.31;;;8.03;100.00
13209;BME280;6669;42.678;23.332;2024-03-02T06:25:09;94000.59;;;7.99;100.00
13209;BME280;6669;42.678;23.332;2024-03-02T06:27:37;93995.78;;;7.96;100.00
13209;BME280;6669;42.678;23.332;2024-03-02T06:30:06;94003.34;;;8.06;100.00
13209;BME280;6669;42.678;23.332;2024-03-02T06:32:35;94008.94;;;8.09;100.00
13209;BME280;6669;42.678;23.332;2024-03-02T06:35:04;94003.78;;;8.09;100.00
13209;BME280;6669;42.678;23.332;2024-03-02T06:37:38;94008.63;;;8.12;100.00
13209;BME280;6669;42.678;23.332;2024-03-02T06:40:09;94013.63;;;8.14;100.00
13209;BME280;6669;42.678;23.332;2024-03-02T06:42:37;94014.97;;;8.10;100.00
13209;BME280;6669;42.678;23.332;2024-03-02T06:45:06;94009.78;;;8.10;100.00
13209;BME280;6669;42.678;23.332;2024-03-02T06:47:34;94008.38;;;7.99;100.00
13209;BME280;6669;42.678;23.332;2024-03-02T06:50:03;94015.47;;;8.05;100.00
13209;BME280;6669;42.678;23.332;2024-03-02T06:52:32;94014.50;;;8.06;100.00
13209;BME280;6669;42.678;23.332;2024-03-02T06:55:00;94015.28;;;8.07;100.00
13209;BME280;6669;42.678;23.332;2024-03-02T06:57:30;94015.00;;;8.01;100.00
13209;BME280;6669;42.678;23.332;2024-03-02T06:59:58;94018.09;;;7.97;100.00
13209;BME280;6669;42.678;23.332;2024-03-02T07:02:27;94015.34;;;7.98;100.00
13209;BME280;6669;42.678;23.332;2024-03-02T07:04:55;94025.53;;;8.00;100.00
13209;BME280;6669;42.678;23.332;2024-03-02T07:07:24;94021.00;;;8.02;100.00
13209;BME280;6669;42.678;23.332;2024-03-02T07:09:52;94027.59;;;8.05;100.00
13209;BME280;6669;42.678;23.332;2024-03-02T07:12:20;94020.16;;;8.01;100.00
13209;BME280;6669;42.678;23.332;2024-03-02T07:14:50;94010.78;;;8.00;100.00
13209;BME280;6669;42.678;23.332;2024-03-02T07:17:35;94023.88;;;8.07;100.00
13209;BME280;6669;42.678;23.332;2024-03-02T07:20:05;94026.78;;;8.04;100.00
13209;BME280;6669;42.678;23.332;2024-03-02T07:22:34;94025.81;;;8.05;100.00
13209;BME280;6669;42.678;23.332;2024-03-02T07:25:08;94027.25;;;8.08;100.00
13209;BME280;6669;42.678;23.332;2024-03-02T07:27:56;94028.75;;;8.02;100.00
13209;BME280;6669;42.678;23.332;2024-03-02T07:30:26;94024.66;;;8.08;100.00
13209;BME280;6669;42.678;23.332;2024-03-02T07:32:58;94034.50;;;8.12;100.00
13209;BME280;6669;42.678;23.332;2024-03-02T07:35:26;94035.66;;;8.10;100.00
13209;BME280;6669;42.678;23.332;2024-03-02T07:37:58;94031.94;;;8.12;100.00
13209;BME280;6669;42.678;23.332;2024-03-02T07:40:26;94028.06;;;8.08;100.00
13209;BME280;6669;42.678;23.332;2024-03-02T07:42:55;94031.88;;;8.21;100.00
13209;BME280;6669;42.678;23.332;2024-03-02T07:45:24;94038.47;;;8.23;100.00
13209;BME280;6669;42.678;23.332;2024-03-02T07:47:53;94036.41;;;8.18;100.00
13209;BME280;6669;42.678;23.332;2024-03-02T07:50:21;94034.44;;;8.21;100.00
13209;BME280;6669;42.678;23.332;2024-03-02T07:52:50;94044.69;;;8.14;100.00
13209;BME280;6669;42.678;23.332;2024-03-02T07:55:18;94037.72;;;8.14;100.00
13209;BME280;6669;42.678;23.332;2024-03-02T07:57:47;94053.97;;;8.08;100.00
13209;BME280;6669;42.678;23.332;2024-03-02T08:00:16;94045.03;;;8.11;100.00
13209;BME280;6669;42.678;23.332;2024-03-02T08:02:45;94052.66;;;8.04;100.00
13209;BME280;6669;42.678;23.332;2024-03-02T08:05:14;94047.34;;;8.06;100.00
13209;BME280;6669;42.678;23.332;2024-03-02T08:07:44;94051.66;;;8.13;100.00
13209;BME280;6669;42.678;23.332;2024-03-02T08:10:12;94058.13;;;8.09;100.00
13209;BME280;6669;42.678;23.332;2024-03-02T08:12:41;94060.09;;;8.07;100.00
13209;BME280;6669;42.678;23.332;2024-03-02T08:15:09;94049.97;;;8.21;100.00
13209;BME280;6669;42.678;23.332;2024-03-02T08:17:39;94048.84;;;8.23;100.00
13209;BME280;6669;42.678;23.332;2024-03-02T08:20:11;94048.50;;;8.26;100.00
13209;BME280;6669;42.678;23.332;2024-03-02T08:22:42;94058.69;;;8.28;100.00
13209;BME280;6669;42.678;23.332;2024-03-02T08:25:10;94057.25;;;8.25;100.00
13209;BME280;6669;42.678;23.332;2024-03-02T08:27:39;94052.19;;;8.32;100.00
13209;BME280;6669;42.678;23.332;2024-03-02T08:30:09;94056.69;;;8.38;100.00
13209;BME280;6669;42.678;23.332;2024-03-02T08:32:37;94048.44;;;8.34;100.00
13209;BME280;6669;42.678;23.332;2024-03-02T08:35:07;94056.97;;;8.43;100.00
13209;BME280;6669;42.678;23.332;2024-03-02T08:37:38;94051.13;;;8.49;100.00
13209;BME280;6669;42.678;23.332;2024-03-02T08:40:10;94049.00;;;8.53;100.00
13209;BME280;6669;42.678;23.332;2024-03-02T08:42:45;94049.06;;;8.68;100.00
13209;BME280;6669;42.678;23.332;2024-03-02T08:45:13;94041.47;;;8.81;100.00
13209;BME280;6669;42.678;23.332;2024-03-02T08:47:42;94040.31;;;8.84;100.00
13209;BME280;6669;42.678;23.332;2024-03-02T08:50:10;94051.97;;;9.03;100.00
13209;BME280;6669;42.678;23.332;2024-03-02T08:52:43;94048.50;;;9.11;100.00
13209;BME280;6669;42.678;23.332;2024-03-02T08:55:13;94053.78;;;9.18;100.00
13209;BME280;6669;42.678;23.332;2024-03-02T08:57:42;94052.38;;;9.30;100.00
13209;BME280;6669;42.678;23.332;2024-03-02T09:00:11;94049.53;;;9.40;100.00
13209;BME280;6669;42.678;23.332;2024-03-02T09:02:41;94047.28;;;9.52;100.00
13209;BME280;6669;42.678;23.332;2024-03-02T09:05:09;94048.38;;;9.57;100.00
13209;BME280;6669;42.678;23.332;2024-03-02T09:07:38;94057.66;;;9.67;100.00
13209;BME280;6669;42.678;23.332;2024-03-02T09:10:08;94056.47;;;9.84;100.00
13209;BME280;6669;42.678;23.332;2024-03-02T09:12:38;94059.41;;;9.96;100.00
13209;BME280;6669;42.678;23.332;2024-03-02T09:15:07;94062.19;;;10.09;100.00
13209;BME280;6669;42.678;23.332;2024-03-02T09:17:36;94067.09;;;10.04;100.00
13209;BME280;6669;42.678;23.332;2024-03-02T09:20:05;94061.91;;;10.04;100.00
13209;BME280;6669;42.678;23.332;2024-03-02T09:22:33;94062.19;;;10.09;100.00
13209;BME280;6669;42.678;23.332;2024-03-02T09:25:02;94073.09;;;10.05;100.00
13209;BME280;6669;42.678;23.332;2024-03-02T09:27:30;94067.72;;;9.91;100.00
13209;BME280;6669;42.678;23.332;2024-03-02T09:30:00;94073.09;;;10.05;100.00
13209;BME280;6669;42.678;23.332;2024-03-02T09:32:29;94066.66;;;10.01;100.00
13209;BME280;6669;42.678;23.332;2024-03-02T09:34:57;94069.78;;;9.96;100.00
13209;BME280;6669;42.678;23.332;2024-03-02T09:37:26;94068.81;;;9.97;100.00
13209;BME280;6669;42.678;23.332;2024-03-02T09:39:55;94072.41;;;9.96;100.00
13209;BME280;6669;42.678;23.332;2024-03-02T09:42:24;94077.69;;;9.88;100.00
13209;BME280;6669;42.678;23.332;2024-03-02T09:44:52;94073.69;;;9.85;100.00
13209;BME280;6669;42.678;23.332;2024-03-02T09:47:22;94078.03;;;9.85;100.00
13209;BME280;6669;42.678;23.332;2024-03-02T09:49:50;94073.69;;;9.85;100.00
13209;BME280;6669;42.678;23.332;2024-03-02T09:52:19;94079.91;;;9.91;100.00
13209;BME280;6669;42.678;23.332;2024-03-02T09:54:47;94080.38;;;9.94;100.00
13209;BME280;6669;42.678;23.332;2024-03-02T09:57:16;94079.66;;;10.01;100.00
13209;BME280;6669;42.678;23.332;2024-03-02T09:59:45;94078.13;;;9.91;100.00
13209;BME280;6669;42.678;23.332;2024-03-02T10:02:13;94080.09;;;9.89;100.00
13209;BME280;6669;42.678;23.332;2024-03-02T10:04:43;94081.28;;;9.87;100.00
13209;BME280;6669;42.678;23.332;2024-03-02T10:07:12;94075.81;;;9.81;100.00
13209;BME280;6669;42.678;23.332;2024-03-02T10:09:42;94069.28;;;9.71;100.00
13209;BME280;6669;42.678;23.332;2024-03-02T10:12:13;94076.53;;;9.75;100.00
13209;BME280;6669;42.678;23.332;2024-03-02T10:14:42;94073.31;;;9.73;100.00
13209;BME280;6669;42.678;23.332;2024-03-02T10:17:11;94069.91;;;9.73;100.00
13209;BME280;6669;42.678;23.332;2024-03-02T10:19:40;94070.72;;;9.73;100.00
13209;BME280;6669;42.678;23.332;2024-03-02T10:22:10;94068.31;;;9.72;100.00
13209;BME280;6669;42.678;23.332;2024-03-02T10:24:39;94079.22;;;9.67;100.00
13209;BME280;6669;42.678;23.332;2024-03-02T10:27:09;94076.09;;;9.72;100.00
13209;BME280;6669;42.678;23.332;2024-03-02T10:29:38;94077.59;;;9.81;100.00
13209;BME280;6669;42.678;23.332;2024-03-02T10:32:11;94074.19;;;9.80;100.00
13209;BME280;6669;42.678;23.332;2024-03-02T10:34:40;94068.63;;;9.84;100.00
13209;BME280;6669;42.678;23.332;2024-03-02T10:37:11;94070.81;;;9.80;100.00
13209;BME280;6669;42.678;23.332;2024-03-02T10:39:40;94074.56;;;9.77;100.00
13209;BME280;6669;42.678;23.332;2024-03-02T10:42:09;94071.53;;;9.74;100.00
13209;BME280;6669;42.678;23.332;2024-03-02T10:44:37;94071.44;;;9.67;100.00
13209;BME280;6669;42.678;23.332;2024-03-02T10:47:06;94065.53;;;9.58;100.00
13209;BME280;6669;42.678;23.332;2024-03-02T10:49:35;94075.09;;;9.58;100.00
13209;BME280;6669;42.678;23.332;2024-03-02T10:52:04;94063.38;;;9.62;100.00
13209;BME280;6669;42.678;23.332;2024-03-02T10:54:34;94056.31;;;9.56;100.00
13209;BME280;6669;42.678;23.332;2024-03-02T10:57:07;94059.63;;;9.64;100.00
13209;BME280;6669;42.678;23.332;2024-03-02T10:59:42;94053.00;;;9.62;100.00
13209;BME280;6669;42.678;23.332;2024-03-02T11:02:16;94055.25;;;9.65;100.00
13209;BME280;6669;42.678;23.332;2024-03-02T11:04:47;94048.06;;;9.67;100.00
13209;BME280;6669;42.678;23.332;2024-03-02T11:07:18;94057.47;;;9.68;100.00
13209;BME280;6669;42.678;23.332;2024-03-02T11:09:54;94041.81;;;9.61;100.00
13209;BME280;6669;42.678;23.332;2024-03-02T11:12:28;94058.19;;;9.62;100.00
13209;BME280;6669;42.678;23.332;2024-03-02T11:14:58;94054.97;;;9.60;100.00
13209;BME280;6669;42.678;23.332;2024-03-02T11:17:26;94053.38;;;9.59;100.00
13209;BME280;6669;42.678;23.332;2024-03-02T11:19:55;94049.34;;;9.56;100.00
13209;BME280;6669;42.678;23.332;2024-03-02T11:22:24;94052.38;;;9.45;100.00
13209;BME280;6669;42.678;23.332;2024-03-02T11:24:55;94047.72;;;9.55;100.00
13209;BME280;6669;42.678;23.332;2024-03-02T11:28:00;94047.28;;;9.52;100.00
13209;BME280;6669;42.678;23.332;2024-03-02T11:30:51;94048.00;;;9.45;100.00
13209;BME280;6669;42.678;23.332;2024-03-02T11:33:24;94031.44;;;9.31;100.00
13209;BME280;6669;42.678;23.332;2024-03-02T11:35:57;94048.53;;;9.56;100.00
13209;BME280;6669;42.678;23.332;2024-03-02T11:38:31;94044.50;;;9.53;100.00
13209;BME280;6669;42.678;23.332;2024-03-02T11:41:05;94044.59;;;9.60;100.00
13209;BME280;6669;42.678;23.332;2024-03-02T11:43:37;94046.38;;;9.59;100.00
13209;BME280;6669;42.678;23.332;2024-03-02T11:46:06;94051.75;;;9.58;100.00
13209;BME280;6669;42.678;23.332;2024-03-02T11:48:35;94049.34;;;9.56;100.00
13209;BME280;6669;42.678;23.332;2024-03-02T11:51:05;94051.75;;;9.58;100.00
13209;BME280;6669;42.678;23.332;2024-03-02T11:53:33;94050.69;;;9.52;100.00
13209;BME280;6669;42.678;23.332;2024-03-02T11:56:06;94053.38;;;9.59;100.00
13209;BME280;6669;42.678;23.332;2024-03-02T11:58:36;94040.47;;;9.51;100.00
13209;BME280;6669;42.678;23.332;2024-03-02T12:01:05;94047.72;;;9.55;100.00
13209;BME280;6669;42.678;23.332;2024-03-02T12:03:34;94042.63;;;9.62;100.00
13209;BME280;6669;42.678;23.332;2024-03-02T12:06:04;94046.28;;;9.68;100.00
13209;BME280;6669;42.678;23.332;2024-03-02T12:08:33;94046.38;;;9.74;100.00
13209;BME280;6669;42.678;23.332;2024-03-02T12:11:02;94040.81;;;9.77;100.00
13209;BME280;6669;42.678;23.332;2024-03-02T12:13:32;94050.13;;;9.87;100.00
13209;BME280;6669;42.678;23.332;2024-03-02T12:16:00;94044.03;;;9.94;100.00
13209;BME280;6669;42.678;23.332;2024-03-02T12:18:29;94051.56;;;9.89;100.00
13209;BME280;6669;42.678;23.332;2024-03-02T12:20:58;94047.09;;;9.83;100.00
13209;BME280;6669;42.678;23.332;2024-03-02T12:23:29;94049.88;;;9.81;100.00
13209;BME280;6669;42.678;23.332;2024-03-02T12:25:57;94046.56;;;9.88;100.00
13209;BME280;6669;42.678;23.332;2024-03-02T12:28:26;94050.31;;;9.85;100.00
13209;BME280;6669;42.678;23.332;2024-03-02T12:30:55;94048.78;;;9.76;100.00
13209;BME280;6669;42.678;23.332;2024-03-02T12:33:24;94044.69;;;9.81;100.00
13209;BME280;6669;42.678;23.332;2024-03-02T12:35:54;94050.13;;;9.87;100.00
13209;BME280;6669;42.678;23.332;2024-03-02T12:38:22;94044.94;;;9.87;100.00
13209;BME280;6669;42.678;23.332;2024-03-02T12:40:52;94045.00;;;9.93;100.00
13209;BME280;6669;42.678;23.332;2024-03-02T12:43:21;94038.72;;;10.03;100.00
13209;BME280;6669;42.678;23.332;2024-03-02T12:45:50;94045.69;;;10.02;100.00
13209;BME280;6669;42.678;23.332;2024-03-02T12:48:20;94048.19;;;10.10;100.00
13209;BME280;6669;42.678;23.332;2024-03-02T12:50:49;94053.28;;;10.19;100.00
13209;BME280;6669;42.678;23.332;2024-03-02T12:53:18;94039.75;;;10.23;100.00
13209;BME280;6669;42.678;23.332;2024-03-02T12:55:46;94054.88;;;10.20;100.00
13209;BME280;6669;42.678;23.332;2024-03-02T12:58:18;94052.09;;;10.21;100.00
13209;BME280;6669;42.678;23.332;2024-03-02T13:00:46;94047.69;;;10.22;100.00
13209;BME280;6669;42.678;23.332;2024-03-02T13:03:17;94043.69;;;10.19;100.00
13209;BME280;6669;42.678;23.332;2024-03-02T13:05:52;94045.69;;;10.17;100.00
13209;BME280;6669;42.678;23.332;2024-03-02T13:08:20;94054.16;;;10.26;100.00
13209;BME280;6669;42.678;23.332;2024-03-02T13:10:49;94043.84;;;10.33;100.00
13209;BME280;6669;42.678;23.332;2024-03-02T13:13:18;94045.69;;;10.17;100.00